createdAt,value
2019-03-01T00:01:44.625Z,101204.94
2019-03-01T00:04:35.949Z,101202.33
2019-03-01T00:07:55.686Z,101198.84
2019-03-01T00:10:41.172Z,101186.16
2019-03-01T00:13:43.426Z,101181.84
2019-03-01T00:17:04.586Z,101177.92
2019-03-01T00:19:56.053Z,101178.39
2019-03-01T00:22:32.039Z,101177.98
2019-03-01T00:25:30.402Z,101178.84
2019-03-01T00:28:41.302Z,101186.67
2019-03-01T00:31:56.136Z,101186.67
2019-03-01T00:34:49.463Z,101184.92
2019-03-01T00:38:07.410Z,101183.48
2019-03-01T00:41:34.781Z,101167.84
2019-03-01T00:44:28.948Z,101164.81
2019-03-01T00:46:56.167Z,101161.34
2019-03-01T00:49:23.384Z,101161.34
2019-03-01T00:51:50.572Z,101160.06
2019-03-01T00:54:17.825Z,101153.52
2019-03-01T00:56:45.031Z,101153.52
2019-03-01T00:59:12.252Z,101164.59
2019-03-01T01:01:39.462Z,101164.59
2019-03-01T01:04:06.638Z,101162.16
2019-03-01T01:06:33.915Z,101162.16
2019-03-01T01:09:01.119Z,101167.00
2019-03-01T01:11:28.323Z,101159.20
2019-03-01T01:13:55.596Z,101157.87
2019-03-01T01:16:22.785Z,101156.97
2019-03-01T01:18:50.012Z,101145.66
2019-03-01T01:21:17.301Z,101149.19
2019-03-01T01:23:44.451Z,101136.95
2019-03-01T01:26:11.691Z,101138.69
2019-03-01T01:28:38.861Z,101136.95
2019-03-01T01:31:06.052Z,101125.62
2019-03-01T01:33:33.235Z,101125.62
2019-03-01T01:36:00.458Z,101120.44
2019-03-01T01:38:27.646Z,101114.81
2019-03-01T01:40:59.020Z,101114.81
2019-03-01T01:43:26.326Z,101124.31
2019-03-01T01:45:53.540Z,101121.30
2019-03-01T01:48:20.679Z,101119.11
2019-03-01T01:50:47.957Z,101112.58
2019-03-01T01:53:15.108Z,101120.38
2019-03-01T01:55:42.439Z,101107.72
2019-03-01T01:58:09.611Z,101109.42
2019-03-01T02:00:36.818Z,101109.46
2019-03-01T02:03:04.069Z,101100.78
2019-03-01T02:05:31.243Z,101100.78
2019-03-01T02:07:58.414Z,101105.08
2019-03-01T02:10:25.642Z,101103.25
2019-03-01T02:12:52.807Z,101095.75
2019-03-01T02:15:20.061Z,101087.00
2019-03-01T02:17:47.359Z,101093.44
2019-03-01T02:20:14.736Z,101097.50
2019-03-01T02:22:41.902Z,101098.13
2019-03-01T02:25:09.157Z,101096.44
2019-03-01T02:27:36.363Z,101095.13
2019-03-01T02:30:12.902Z,101091.65
2019-03-01T02:32:42.392Z,101090.41
2019-03-01T02:35:11.801Z,101090.41
2019-03-01T02:37:39.005Z,101082.11
2019-03-01T02:40:07.592Z,101077.73
2019-03-01T02:42:34.812Z,101077.73
2019-03-01T02:45:02.050Z,101069.03
2019-03-01T02:47:29.254Z,101074.23
2019-03-01T02:49:56.526Z,101068.92
2019-03-01T02:52:23.785Z,101068.92
2019-03-01T02:54:50.945Z,101071.32
2019-03-01T02:57:18.594Z,101071.27
2019-03-01T02:59:45.819Z,101068.80
2019-03-01T03:02:13.018Z,101066.73
2019-03-01T03:04:40.189Z,101075.51
2019-03-01T03:07:38.878Z,101080.78
2019-03-01T03:10:06.339Z,101086.93
2019-03-01T03:12:33.640Z,101086.93
2019-03-01T03:15:00.839Z,101082.20
2019-03-01T03:17:28.038Z,101083.92
2019-03-01T03:19:55.302Z,101083.92
2019-03-01T03:22:22.487Z,101083.89
2019-03-01T03:24:49.855Z,101083.04
2019-03-01T03:27:17.047Z,101083.04
2019-03-01T03:29:44.236Z,101086.53
2019-03-01T03:32:11.469Z,101089.98
2019-03-01T03:34:38.686Z,101086.48
2019-03-01T03:37:05.966Z,101081.69
2019-03-01T03:39:33.168Z,101083.00
2019-03-01T03:42:00.380Z,101086.50
2019-03-01T03:44:27.549Z,101086.43
2019-03-01T03:46:54.744Z,101085.63
2019-03-01T03:49:21.943Z,101084.83
2019-03-01T03:51:49.159Z,101083.11
2019-03-01T03:54:16.567Z,101077.87
2019-03-01T03:56:43.784Z,101077.87
2019-03-01T03:59:10.976Z,101070.86
2019-03-01T04:01:38.174Z,101079.59
2019-03-01T04:04:05.531Z,101072.69
2019-03-01T04:06:32.757Z,101074.86
2019-03-01T04:08:59.950Z,101074.86
2019-03-01T04:11:27.167Z,101073.98
2019-03-01T04:13:54.438Z,101067.83
2019-03-01T04:16:21.635Z,101067.83
2019-03-01T04:18:48.823Z,101064.30
2019-03-01T04:21:16.018Z,101066.48
2019-03-01T04:23:43.251Z,101065.23
2019-03-01T04:26:10.460Z,101065.23
2019-03-01T04:28:37.673Z,101060.48
2019-03-01T04:31:04.911Z,101060.48
2019-03-01T04:33:32.099Z,101061.78
2019-03-01T04:35:59.344Z,101055.77
2019-03-01T04:38:26.658Z,101064.41
2019-03-01T04:40:53.857Z,101063.03
2019-03-01T04:43:21.064Z,101067.41
2019-03-01T04:45:48.260Z,101070.95
2019-03-01T04:48:15.458Z,101076.58
2019-03-01T04:50:42.717Z,101066.11
2019-03-01T04:53:09.926Z,101066.11
2019-03-01T04:55:37.200Z,101080.80
2019-03-01T04:58:04.379Z,101083.00
2019-03-01T05:00:31.577Z,101081.73
2019-03-01T05:02:58.769Z,101072.31
2019-03-01T05:05:25.973Z,101072.31
2019-03-01T05:07:53.170Z,101087.07
2019-03-01T05:10:20.389Z,101091.00
2019-03-01T05:12:48.955Z,101096.64
2019-03-01T05:15:18.325Z,101084.31
2019-03-01T05:17:45.741Z,101095.88
2019-03-01T05:20:13.175Z,101094.59
2019-03-01T05:22:40.497Z,101094.59
2019-03-01T05:25:08.923Z,101098.89
2019-03-01T05:27:37.832Z,101098.89
2019-03-01T05:30:08.981Z,101099.33
2019-03-01T05:32:36.452Z,101106.41
2019-03-01T05:35:03.857Z,101106.41
2019-03-01T05:37:31.203Z,101111.22
2019-03-01T05:39:58.504Z,101111.22
2019-03-01T05:42:25.855Z,101110.86
2019-03-01T05:44:53.102Z,101111.28
2019-03-01T05:47:20.422Z,101119.14
2019-03-01T05:49:47.690Z,101116.59
2019-03-01T05:52:14.931Z,101120.53
2019-03-01T05:54:42.144Z,101120.17
2019-03-01T05:57:11.786Z,101130.25
2019-03-01T05:59:39.036Z,101127.23
2019-03-01T06:02:51.081Z,101132.06
2019-03-01T06:05:21.510Z,101120.33
2019-03-01T06:08:26.186Z,101127.69
2019-03-01T06:11:37.077Z,101129.47
2019-03-01T06:14:51.037Z,101140.34
2019-03-01T06:18:15.617Z,101143.73
2019-03-01T06:21:24.898Z,101143.73
2019-03-01T06:24:04.977Z,101137.28
2019-03-01T06:27:12.826Z,101131.67
2019-03-01T06:30:03.750Z,101136.04
2019-03-01T06:33:08.604Z,101136.04
2019-03-01T06:36:40.473Z,101139.45
2019-03-01T06:39:43.995Z,101137.57
2019-03-01T06:42:33.986Z,101138.33
2019-03-01T06:45:55.514Z,101144.09
2019-03-01T06:48:41.081Z,101148.42
2019-03-01T06:51:17.971Z,101150.18
2019-03-01T06:53:45.377Z,101153.31
2019-03-01T06:56:12.793Z,101155.03
2019-03-01T06:58:43.363Z,101152.63
2019-03-01T07:01:28.713Z,101153.03
2019-03-01T07:04:05.344Z,101155.58
2019-03-01T07:06:32.759Z,101154.41
2019-03-01T07:09:00.006Z,101159.67
2019-03-01T07:11:27.232Z,101156.51
2019-03-01T07:13:54.898Z,101154.22
2019-03-01T07:16:22.164Z,101153.77
2019-03-01T07:18:49.363Z,101164.70
2019-03-01T07:21:16.580Z,101155.98
2019-03-01T07:23:43.788Z,101159.56
2019-03-01T07:26:11.012Z,101173.19
2019-03-01T07:28:38.220Z,101177.14
2019-03-01T07:31:07.104Z,101175.42
2019-03-01T07:33:34.526Z,101172.03
2019-03-01T07:36:01.728Z,101172.95
2019-03-01T07:38:28.972Z,101173.34
2019-03-01T07:40:56.275Z,101173.34
2019-03-01T07:43:23.465Z,101178.53
2019-03-01T07:45:50.689Z,101179.45
2019-03-01T07:48:18.054Z,101175.05
2019-03-01T07:50:45.348Z,101172.44
2019-03-01T07:53:12.519Z,101176.81
2019-03-01T07:55:39.722Z,101187.30
2019-03-01T07:58:06.940Z,101195.56
2019-03-01T08:00:34.262Z,101187.76
2019-03-01T08:03:01.496Z,101200.42
2019-03-01T08:05:28.825Z,101201.72
2019-03-01T08:07:59.650Z,101197.75
2019-03-01T08:10:25.102Z,101203.44
2019-03-01T08:12:52.341Z,101206.07
2019-03-01T08:15:19.526Z,101209.59
2019-03-01T08:17:46.791Z,101206.92
2019-03-01T08:20:14.864Z,101206.92
2019-03-01T08:22:48.652Z,101209.61
2019-03-01T08:25:11.481Z,101207.91
2019-03-01T08:27:42.060Z,101207.91
2019-03-01T08:30:11.350Z,101208.30
2019-03-01T08:32:38.583Z,101208.30
2019-03-01T08:35:06.977Z,101220.09
2019-03-01T08:37:34.227Z,101226.55
2019-03-01T08:40:01.450Z,101226.55
2019-03-01T08:42:28.659Z,101218.25
2019-03-01T08:44:58.162Z,101221.75
2019-03-01T08:47:25.002Z,101221.75
2019-03-01T08:49:52.208Z,101233.10
2019-03-01T08:52:19.537Z,101220.88
2019-03-01T08:54:46.847Z,101236.51
2019-03-01T08:57:14.186Z,101236.51
2019-03-01T08:59:41.484Z,101236.06
2019-03-01T09:02:08.787Z,101241.28
2019-03-01T09:04:37.935Z,101246.51
2019-03-01T09:07:05.116Z,101242.99
2019-03-01T09:09:32.278Z,101247.80
2019-03-01T09:11:59.508Z,101252.96
2019-03-01T09:14:27.468Z,101257.77
2019-03-01T09:16:54.814Z,101259.06
2019-03-01T09:19:22.285Z,101246.87
2019-03-01T09:21:51.394Z,101244.66
2019-03-01T09:24:18.681Z,101244.66
2019-03-01T09:26:45.891Z,101244.66
2019-03-01T09:29:18.381Z,101245.06
2019-03-01T09:31:42.306Z,101248.48
2019-03-01T09:34:09.570Z,101248.05
2019-03-01T09:36:40.679Z,101248.05
2019-03-01T09:39:08.607Z,101258.46
2019-03-01T09:41:36.532Z,101261.52
2019-03-01T09:44:05.085Z,101265.44
2019-03-01T09:46:32.297Z,101270.22
2019-03-01T09:48:59.648Z,101266.27
2019-03-01T09:51:26.963Z,101265.84
2019-03-01T09:53:54.146Z,101269.72
2019-03-01T09:56:21.370Z,101281.88
2019-03-01T09:58:48.922Z,101281.88
2019-03-01T10:01:17.401Z,101279.67
2019-03-01T10:03:45.392Z,101277.50
2019-03-01T10:06:12.558Z,101272.68
2019-03-01T10:08:41.143Z,101273.58
2019-03-01T10:11:08.425Z,101273.58
2019-03-01T10:16:03.025Z,101274.38
2019-03-01T10:18:30.233Z,101275.70
2019-03-01T10:20:57.478Z,101276.97
2019-03-01T10:23:24.807Z,101276.97
2019-03-01T10:25:52.123Z,101288.28
2019-03-01T10:28:19.422Z,101288.28
2019-03-01T10:30:46.655Z,101291.75
2019-03-01T10:33:13.885Z,101284.22
2019-03-01T10:35:41.101Z,101287.72
2019-03-01T10:38:08.253Z,101289.02
2019-03-01T10:40:35.493Z,101292.05
2019-03-01T10:43:02.685Z,101285.48
2019-03-01T10:45:29.911Z,101290.67
2019-03-01T10:47:57.281Z,101292.45
2019-03-01T10:50:24.480Z,101291.97
2019-03-01T10:52:51.689Z,101292.43
2019-03-01T10:55:18.970Z,101292.43
2019-03-01T10:57:46.149Z,101292.83
2019-03-01T11:00:17.775Z,101296.74
2019-03-01T11:02:45.174Z,101297.14
2019-03-01T11:05:12.378Z,101309.78
2019-03-01T11:07:39.552Z,101314.13
2019-03-01T11:10:08.277Z,101320.73
2019-03-01T11:12:35.453Z,101320.28
2019-03-01T11:15:02.719Z,101323.80
2019-03-01T11:17:29.917Z,101330.38
2019-03-01T11:19:57.150Z,101336.89
2019-03-01T11:22:24.512Z,101336.89
2019-03-01T11:24:51.872Z,101341.24
2019-03-01T11:27:19.095Z,101344.28
2019-03-01T11:29:46.326Z,101345.17
2019-03-01T11:32:13.619Z,101340.00
2019-03-01T11:34:40.885Z,101342.97
2019-03-01T11:37:08.122Z,101345.14
2019-03-01T11:39:35.364Z,101341.13
2019-03-01T11:42:02.748Z,101350.73
2019-03-01T11:44:29.936Z,101355.91
2019-03-01T11:46:57.274Z,101365.16
2019-03-01T11:49:24.489Z,101362.98
2019-03-01T11:51:51.678Z,101366.09
2019-03-01T11:54:19.166Z,101375.29
2019-03-01T11:56:46.330Z,101366.13
2019-03-01T11:59:13.561Z,101368.35
2019-03-01T12:01:40.919Z,101366.63
2019-03-01T12:04:08.075Z,101370.98
2019-03-01T12:06:35.295Z,101370.09
2019-03-01T12:09:04.067Z,101370.97
2019-03-01T12:11:31.294Z,101364.41
2019-03-01T12:13:58.489Z,101370.05
2019-03-01T12:16:25.729Z,101357.38
2019-03-01T12:18:53.038Z,101360.01
2019-03-01T12:21:20.308Z,101357.39
2019-03-01T12:23:47.593Z,101359.99
2019-03-01T12:26:14.795Z,101361.70
2019-03-01T12:28:41.981Z,101356.02
2019-03-01T12:31:09.255Z,101360.44
2019-03-01T12:33:36.425Z,101359.99
2019-03-01T12:36:04.254Z,101357.39
2019-03-01T12:38:31.542Z,101348.69
2019-03-01T12:40:58.738Z,101342.55
2019-03-01T12:43:25.979Z,101350.38
2019-03-01T12:45:53.159Z,101349.97
2019-03-01T12:48:20.466Z,101347.77
2019-03-01T12:50:47.626Z,101352.14
2019-03-01T12:53:14.787Z,101357.87
2019-03-01T12:55:42.109Z,101354.41
2019-03-01T12:58:19.014Z,101346.09
2019-03-01T13:00:38.389Z,101342.16
2019-03-01T13:03:09.053Z,101346.48
2019-03-01T13:05:34.769Z,101344.76
2019-03-01T13:08:01.936Z,101343.03
2019-03-01T13:10:30.575Z,101343.48
2019-03-01T13:12:58.791Z,101342.66
2019-03-01T13:15:30.437Z,101343.96
2019-03-01T13:17:59.055Z,101351.41
2019-03-01T13:20:26.209Z,101347.41
2019-03-01T13:22:53.594Z,101348.69
2019-03-01T13:25:20.864Z,101350.83
2019-03-01T13:27:48.671Z,101357.73
2019-03-01T13:30:19.010Z,101358.16
2019-03-01T13:32:46.196Z,101366.50
2019-03-01T13:35:14.187Z,101366.02
2019-03-01T13:37:41.544Z,101368.98
2019-03-01T13:40:10.375Z,101368.94
2019-03-01T13:42:37.599Z,101368.04
2019-03-01T13:45:05.350Z,101377.22
2019-03-01T13:47:32.714Z,101372.39
2019-03-01T13:50:05.608Z,101375.49
2019-03-01T13:52:30.008Z,101368.55
2019-03-01T13:54:58.142Z,101368.11
2019-03-01T13:57:25.304Z,101364.19
2019-03-01T13:59:52.521Z,101364.24
2019-03-01T14:02:19.694Z,101369.44
2019-03-01T14:04:46.903Z,101376.88
2019-03-01T14:07:14.093Z,101382.20
2019-03-01T14:09:41.287Z,101380.02
2019-03-01T14:12:08.499Z,101383.54
2019-03-01T14:14:35.735Z,101385.75
2019-03-01T14:17:02.963Z,101378.80
2019-03-01T14:19:30.089Z,101378.80
2019-03-01T14:21:57.351Z,101375.30
2019-03-01T14:24:26.033Z,101379.67
2019-03-01T14:26:54.684Z,101381.43
2019-03-01T14:29:21.974Z,101387.53
2019-03-01T14:31:49.157Z,101389.73
2019-03-01T14:34:16.340Z,101391.91
2019-03-01T14:36:43.951Z,101391.05
2019-03-01T14:39:16.208Z,101393.66
2019-03-01T14:41:43.438Z,101398.91
2019-03-01T14:44:10.629Z,101402.91
2019-03-01T14:46:37.798Z,101396.84
2019-03-01T14:49:05.004Z,101402.10
2019-03-01T14:51:32.213Z,101396.89
2019-03-01T14:53:59.416Z,101397.38
2019-03-01T14:56:31.286Z,101389.07
2019-03-01T14:59:07.119Z,101395.17
2019-03-01T15:02:25.408Z,101396.02
2019-03-01T15:04:54.320Z,101395.15
2019-03-01T15:07:21.773Z,101396.00
2019-03-01T15:09:48.983Z,101397.73
2019-03-01T15:12:20.912Z,101400.82
2019-03-01T15:14:49.608Z,101395.61
2019-03-01T15:17:14.917Z,101405.23
2019-03-01T15:19:44.532Z,101399.99
2019-03-01T15:22:12.947Z,101404.84
2019-03-01T15:24:40.543Z,101409.23
2019-03-01T15:27:07.850Z,101403.59
2019-03-01T15:29:35.063Z,101407.52
2019-03-01T15:32:02.243Z,101404.92
2019-03-01T15:34:29.471Z,101414.56
2019-03-01T15:36:56.812Z,101414.66
2019-03-01T15:39:24.026Z,101414.66
2019-03-01T15:41:51.229Z,101424.24
2019-03-01T15:44:18.478Z,101429.51
2019-03-01T15:46:46.329Z,101426.47
2019-03-01T15:49:15.200Z,101427.36
2019-03-01T15:51:43.509Z,101433.02
2019-03-01T15:54:11.606Z,101436.52
2019-03-01T15:56:39.490Z,101438.27
2019-03-01T15:59:09.525Z,101443.08
2019-03-01T16:01:37.126Z,101441.31
2019-03-01T16:04:04.294Z,101441.30
2019-03-01T16:06:31.618Z,101440.89
2019-03-01T16:08:58.795Z,101443.53
2019-03-01T16:11:26.001Z,101447.93
2019-03-01T16:13:53.210Z,101450.98
2019-03-01T16:16:20.401Z,101446.65
2019-03-01T16:18:47.613Z,101451.00
2019-03-01T16:21:14.850Z,101452.77
2019-03-01T16:23:42.087Z,101451.48
2019-03-01T16:26:09.426Z,101451.95
2019-03-01T16:28:37.468Z,101451.95
2019-03-01T16:31:04.806Z,101457.63
2019-03-01T16:33:32.014Z,101459.83
2019-03-01T16:36:00.973Z,101459.83
2019-03-01T16:38:28.359Z,101457.70
2019-03-01T16:40:55.540Z,101462.03
2019-03-01T16:43:25.480Z,101461.16
2019-03-01T16:45:53.310Z,101461.16
2019-03-01T16:48:20.999Z,101458.59
2019-03-01T16:50:48.215Z,101462.13
2019-03-01T16:53:15.429Z,101478.23
2019-03-01T16:55:42.630Z,101478.23
2019-03-01T16:58:09.827Z,101485.64
2019-03-01T17:00:37.064Z,101492.23
2019-03-01T17:03:04.990Z,101494.81
2019-03-01T17:05:32.239Z,101499.20
2019-03-01T17:07:59.718Z,101488.76
2019-03-01T17:10:30.287Z,101498.32
2019-03-01T17:12:57.810Z,101497.48
2019-03-01T17:15:25.006Z,101500.09
2019-03-01T17:17:52.248Z,101507.08
2019-03-01T17:20:19.461Z,101508.81
2019-03-01T17:22:46.649Z,101515.41
2019-03-01T17:25:14.790Z,101517.56
2019-03-01T17:27:43.385Z,101517.56
2019-03-01T17:30:14.352Z,101518.02
2019-03-01T17:32:42.293Z,101521.91
2019-03-01T17:35:09.778Z,101515.41
2019-03-01T17:37:37.032Z,101515.91
2019-03-01T17:40:04.525Z,101522.84
2019-03-01T17:42:31.691Z,101522.84
2019-03-01T17:44:59.068Z,101529.34
2019-03-01T17:47:26.298Z,101523.67
2019-03-01T17:49:53.492Z,101531.53
2019-03-01T17:52:20.690Z,101526.72
2019-03-01T17:54:47.929Z,101527.19
2019-03-01T17:57:15.132Z,101527.19
2019-03-01T17:59:44.614Z,101528.02
2019-03-01T18:02:12.127Z,101528.02
2019-03-01T18:04:40.580Z,101531.11
2019-03-01T18:07:07.752Z,101538.09
2019-03-01T18:09:36.416Z,101533.27
2019-03-01T18:12:03.882Z,101535.05
2019-03-01T18:14:33.811Z,101529.84
2019-03-01T18:17:01.201Z,101529.84
2019-03-01T18:19:28.611Z,101536.80
2019-03-01T18:21:55.790Z,101538.57
2019-03-01T18:24:23.013Z,101537.70
2019-03-01T18:26:50.371Z,101537.70
2019-03-01T18:29:17.570Z,101544.64
2019-03-01T18:31:44.774Z,101541.19
2019-03-01T18:34:12.005Z,101533.34
2019-03-01T18:36:39.230Z,101538.56
2019-03-01T18:39:10.374Z,101537.69
2019-03-01T18:41:37.609Z,101532.91
2019-03-01T18:44:04.789Z,101535.96
2019-03-01T18:46:32.038Z,101529.00
2019-03-01T18:48:59.204Z,101532.47
2019-03-01T18:51:26.437Z,101526.38
2019-03-01T18:53:53.714Z,101533.77
2019-03-01T18:56:20.909Z,101541.20
2019-03-01T18:58:48.946Z,101535.97
2019-03-01T19:01:17.098Z,101535.97
2019-03-01T19:03:44.295Z,101541.20
2019-03-01T19:06:12.774Z,101535.20
2019-03-01T19:08:40.620Z,101556.09
2019-03-01T19:11:07.869Z,101556.09
2019-03-01T19:13:35.139Z,101558.30
2019-03-01T19:16:02.326Z,101558.30
2019-03-01T19:18:29.543Z,101556.09
2019-03-01T19:20:56.807Z,101553.91
2019-03-01T19:23:25.666Z,101554.79
2019-03-01T19:25:53.128Z,101553.47
2019-03-01T19:28:20.356Z,101553.47
2019-03-01T19:30:49.336Z,101562.63
2019-03-01T19:33:17.248Z,101559.59
2019-03-01T19:35:44.655Z,101542.59
2019-03-01T19:38:11.885Z,101542.59
2019-03-01T19:40:39.108Z,101550.38
2019-03-01T19:43:07.054Z,101537.34
2019-03-01T19:45:37.528Z,101537.34
2019-03-01T19:48:04.541Z,101539.48
2019-03-01T19:50:31.719Z,101539.48
2019-03-01T19:52:58.884Z,101541.22
2019-03-01T19:55:26.127Z,101549.06
2019-03-01T19:57:53.312Z,101549.06
2019-03-01T20:00:21.771Z,101553.88
2019-03-01T20:02:48.990Z,101552.16
2019-03-01T20:05:18.016Z,101560.86
2019-03-01T20:07:45.199Z,101559.13
2019-03-01T20:10:14.958Z,101559.13
2019-03-01T20:12:42.260Z,101556.52
2019-03-01T20:15:11.958Z,101558.70
2019-03-01T20:17:44.355Z,101555.20
2019-03-01T20:20:09.722Z,101573.95
2019-03-01T20:22:36.967Z,101568.70
2019-03-01T20:25:04.725Z,101572.64
2019-03-01T20:27:31.911Z,101577.45
2019-03-01T20:29:59.117Z,101578.77
2019-03-01T20:32:26.330Z,101580.96
2019-03-01T20:34:53.532Z,101577.03
2019-03-01T20:37:20.743Z,101571.38
2019-03-01T20:39:51.045Z,101569.59
2019-03-01T20:42:17.684Z,101569.59
2019-03-01T20:44:46.162Z,101568.30
2019-03-01T20:47:15.490Z,101571.80
2019-03-01T20:49:42.447Z,101574.00
2019-03-01T20:52:09.701Z,101585.78
2019-03-01T20:54:36.923Z,101585.78
2019-03-01T20:57:04.106Z,101580.97
2019-03-01T20:59:31.320Z,101584.89
2019-03-01T21:01:58.542Z,101586.25
2019-03-01T21:04:25.724Z,101587.10
2019-03-01T21:06:52.894Z,101590.17
2019-03-01T21:09:20.099Z,101592.80
2019-03-01T21:11:47.285Z,101587.15
2019-03-01T21:14:14.483Z,101579.30
2019-03-01T21:16:44.793Z,101590.19
2019-03-01T21:19:10.815Z,101576.27
2019-03-01T21:21:38.012Z,101576.27
2019-03-01T21:24:05.484Z,101584.53
2019-03-01T21:26:32.697Z,101581.91
2019-03-01T21:28:59.920Z,101574.06
2019-03-01T21:31:27.170Z,101579.30
2019-03-01T21:33:54.380Z,101579.30
2019-03-01T21:36:22.942Z,101580.62
2019-03-01T21:38:50.653Z,101582.34
2019-03-01T21:41:17.823Z,101587.62
2019-03-01T21:43:45.068Z,101588.95
2019-03-01T21:46:12.247Z,101588.95
2019-03-01T21:48:39.490Z,101591.98
2019-03-01T21:51:06.744Z,101601.12
2019-03-01T21:53:36.444Z,101598.11
2019-03-01T21:56:04.502Z,101598.10
2019-03-01T21:58:32.108Z,101607.66
2019-03-01T22:01:02.660Z,101603.73
2019-03-01T22:03:28.856Z,101610.30
2019-03-01T22:05:56.226Z,101609.86
2019-03-01T22:08:23.426Z,101600.70
2019-03-01T22:10:50.641Z,101600.70
2019-03-01T22:13:17.880Z,101606.39
2019-03-01T22:15:45.111Z,101600.73
2019-03-01T22:18:12.298Z,101600.73
2019-03-01T22:20:41.509Z,101606.39
2019-03-01T22:23:10.236Z,101606.39
2019-03-01T22:25:39.076Z,101607.66
2019-03-01T22:28:06.375Z,101594.20
2019-03-01T22:30:33.638Z,101602.89
2019-03-01T22:33:00.865Z,101602.89
2019-03-01T22:35:28.019Z,101605.52
2019-03-01T22:37:55.578Z,101603.36
2019-03-01T22:40:23.865Z,101602.48
2019-03-01T22:42:52.022Z,101598.17
2019-03-01T22:45:19.193Z,101598.17
2019-03-01T22:47:46.389Z,101610.79
2019-03-01T22:50:14.329Z,101591.63
2019-03-01T22:52:41.550Z,101591.63
2019-03-01T22:55:09.968Z,101609.91
2019-03-01T22:57:37.146Z,101609.48
2019-03-01T23:00:07.124Z,101597.72
2019-03-01T23:02:34.634Z,101598.61
2019-03-01T23:05:03.830Z,101598.14
2019-03-01T23:07:31.022Z,101598.14
2019-03-01T23:09:58.219Z,101590.33
2019-03-01T23:12:25.459Z,101599.48
2019-03-01T23:14:52.658Z,101595.56
2019-03-01T23:17:19.973Z,101601.68
2019-03-01T23:19:47.774Z,101595.56
2019-03-01T23:22:16.239Z,101595.56
2019-03-01T23:24:43.606Z,101596.45
2019-03-01T23:27:10.825Z,101593.42
2019-03-01T23:29:38.007Z,101593.42
2019-03-01T23:32:05.323Z,101604.73
2019-03-01T23:34:32.521Z,101598.19
2019-03-01T23:37:00.653Z,101591.22
2019-03-01T23:39:28.862Z,101591.22
2019-03-01T23:41:56.063Z,101594.69
2019-03-01T23:44:23.301Z,101594.69
2019-03-01T23:46:50.650Z,101588.17
2019-03-01T23:49:20.566Z,101590.80
2019-03-01T23:51:46.940Z,101590.80
2019-03-01T23:54:14.242Z,101597.34
2019-03-01T23:56:41.485Z,101597.34
2019-03-01T23:59:08.688Z,101595.15
